Flight Track Log - Related Links

Times and Time Zones

All times are in EDT time to prevent confusion due to time zone crossing. See the UAL4419 flight status page for this flight to view local times or setup timezone preferences in your user account.

Time Position Orientation Groundspeed Altitude Reporting Facility
EDT Latitude Longitude Course Direction KTS MPH feet Rate Location/Type
Fri 08:54:47 PM 29.9794 -95.3536 30° Northeast 141 162 700  Level Houston Center
Fri 08:55:23 PM 30.0061 -95.3478 11° North 180 207 2,100 1,902 Climbing Houston Center
Fri 08:56:09 PM 30.0464 -95.3258 25° Northeast 207 238 3,300 1,672 Climbing Houston Center
Fri 08:56:24 PM 30.0661 -95.3142 27° Northeast 262 302 3,800 968 Climbing Houston Center
Fri 08:57:00 PM 30.2864 -95.2063 14° North  Level FlightAware Approximate
Fri 08:57:11 PM 30.1114 -95.2953 20° North 239 275 4,300  Level Houston Center
Fri 08:58:00 PM 30.3899 -95.1717 23° Northeast  Level FlightAware Approximate
Fri 08:58:12 PM 30.1733 -95.2667 22° Northeast 241 277 7,000  Level Houston Center
Fri 08:59:00 PM 30.4873 -95.1177 27° Northeast  Level FlightAware Approximate
Fri 08:59:14 PM 30.2392 -95.2367 21° North 250 288 9,400  Level Houston Center
Fri 09:00:00 PM 30.5757 -95.0717 30° Northeast  Level FlightAware Approximate
Fri 09:00:16 PM 30.3114 -95.2036 22° Northeast 270 311 11,000  Level Houston Center
Fri 09:01:17 PM 30.3975 -95.1633 22° Northeast 319 367 11,700 1,366 Climbing Houston Center
Fri 09:02:19 PM 30.5047 -95.1131 22° Northeast 340 391 13,800 1,645 Climbing Houston Center
Fri 09:03:21 PM 30.5975 -95.0692 22° Northeast 353 406 15,100 1,317 Climbing Houston Center
Fri 09:04:22 PM 30.6883 -95.0131 28° Northeast 366 421 16,500 1,268 Climbing Houston Center
Fri 09:05:24 PM 30.7825 -94.9539 28° Northeast 378 435 17,700 1,073 Climbing Houston Center
Fri 09:06:25 PM 30.8789 -94.8939 28° Northeast 390 449 18,700 1,073 Climbing Houston Center
Fri 09:07:27 PM 30.9772 -94.8331 28° Northeast 397 457 19,900 1,171 Climbing Houston Center
Fri 09:08:28 PM 31.0781 -94.7697 28° Northeast 410 472 21,100 1,182 Climbing Houston Center
Fri 09:09:39 PM 31.2028 -94.6933 28° Northeast 400 460 22,500 1,136 Climbing Fort Worth Center
Fri 09:10:40 PM 31.3056 -94.6197 31° Northeast 411 473 23,600 1,100 Climbing Fort Worth Center
Fri 09:11:39 PM 31.4208 -94.5383 31° Northeast 425 489 24,700 1,210 Climbing Fort Worth Center
Fri 09:12:39 PM 31.5275 -94.4644 31° Northeast 437 503 26,000 1,250 Climbing Fort Worth Center
Fri 09:13:39 PM 31.6303 -94.3928 31° Northeast 437 503 27,200 1,250 Climbing Fort Worth Center
Fri 09:14:39 PM 31.7331 -94.3236 30° Northeast 437 503 28,500 1,200 Climbing Fort Worth Center
Fri 09:15:39 PM 31.8375 -94.2467 32° Northeast 437 503 29,600 1,000 Climbing Fort Worth Center
Fri 09:16:39 PM 31.9442 -94.1744 30° Northeast 437 503 30,500 893 Climbing Fort Worth Center
Fri 09:17:40 PM 32.0528 -94.0969 31° Northeast 443 510 31,400 1,050 Climbing Fort Worth Center
Fri 09:18:39 PM 32.1636 -94.0194 31° Northeast 443 510 32,600 807 Climbing Fort Worth Center
Fri 09:19:39 PM 32.2739 -93.9342 33° Northeast 455 524 33,000 200 Climbing Fort Worth Center
Fri 09:20:39 PM 32.3928 -93.8533 30° Northeast 469 540 33,000  Level Fort Worth Center
Fri 09:21:39 PM 32.5094 -93.7700 31° Northeast 480 552 33,000  Level Fort Worth Center
Fri 09:22:39 PM 32.6278 -93.6839 31° Northeast 486 559 33,000  Level Fort Worth Center
Fri 09:23:39 PM 32.7444 -93.6025 30° Northeast 486 559 33,000  Level Fort Worth Center
Fri 09:24:40 PM 32.8608 -93.5208 31° Northeast 480 552 33,000 -550 Level Fort Worth Center
Fri 09:25:39 PM 32.9750 -93.4367 32° Northeast 480 552 31,900 -1,210 Descending Fort Worth Center
Fri 09:26:39 PM 33.0750 -93.3653 31° Northeast 473 544 30,600 -1,350 Descending Fort Worth Center
Fri 09:27:39 PM 33.1872 -93.2831 32° Northeast 473 544 29,200 -1,450 Descending Fort Worth Center
Fri 09:28:39 PM 33.2972 -93.2036 31° Northeast 473 544 27,700 -1,447 Descending Fort Worth Center
Fri 09:30:29 PM 33.4839 -93.0694 31° Northeast 428 493 25,100 -1,553 Descending Memphis Center
Fri 09:31:29 PM 33.5897 -92.9931 31° Northeast 428 493 23,300 -1,850 Descending Memphis Center
Fri 09:32:29 PM 33.6936 -92.9189 31° Northeast 433 498 21,400 -1,850 Descending Memphis Center
Fri 09:33:29 PM 33.7911 -92.8467 32° Northeast 428 493 19,600 -1,200 Descending Memphis Center
Fri 09:34:29 PM 33.8928 -92.7719 31° Northeast 423 487 19,000 -750 Descending Memphis Center
Fri 09:35:29 PM 33.9881 -92.7019 31° Northeast 416 479 18,100 -1,429 Descending Memphis Center
Fri 09:35:53 PM 34.0283 -92.6706 33° Northeast 393 452 17,000 900 Descending Memphis Center
Fri 09:36:29 PM 34.0856 -92.6244 34° Northeast 404 465 19,000 -3,038 Climbing Memphis Center
Fri 09:37:12 PM 34.1467 -92.5808 31° Northeast 366 421 13,000 -6,492 Descending Memphis Center
Fri 09:37:30 PM 34.1722 -92.5614 32° Northeast 380 437 12,400 -2,600 Descending Memphis Center
Fri 09:38:12 PM 34.2269 -92.5225 30° Northeast 346 398 10,400 -2,441 Descending Memphis Center
Fri 09:38:29 PM 34.2525 -92.5031 32° Northeast 357 411 10,000 -689 Descending Memphis Center
Fri 09:39:13 PM 34.2969 -92.4692 32° Northeast 267 307 9,700 -600 Descending Memphis Center
Fri 09:39:29 PM 34.3181 -92.4519 34° Northeast 314 361 9,400 -1,672 Descending Memphis Center
Fri 09:40:14 PM 34.3581 -92.4253 29° Northeast 251 289 8,000 -1,700 Descending Memphis Center
Fri 09:40:29 PM 34.3772 -92.4056 40° Northeast 274 315 7,700 -1,700 Descending Memphis Center
Fri 09:41:14 PM 34.4194 -92.3764 30° Northeast 247 284 6,300 -1,600 Descending Memphis Center
Fri 09:41:29 PM 34.4361 -92.3667 26° Northeast 247 284 6,100 -1,180 Descending Memphis Center
Fri 09:42:15 PM 34.4742 -92.3375 32° Northeast 240 276 5,100 -617 Descending Memphis Center
Fri 09:43:16 PM 34.5356 -92.2883 33° Northeast 252 290 5,000 -47 Descending Memphis Center
Fri 09:44:22 PM 34.6008 -92.2419 30° Northeast 244 281 5,000 -313 Level Memphis Center
Fri 09:45:11 PM 34.6392 -92.2025 40° Northeast 227 261 4,400 -896 Descending Memphis Center
Fri 09:45:29 PM 34.6519 -92.1875 44° Northeast 236 272 4,000 -1,600 Descending Memphis Center
Fri 09:46:11 PM 34.6878 -92.1453 44° Northeast 231 266 2,800 -1,300 Descending Memphis Center
Fri 09:46:29 PM 34.6986 -92.1328 43° Northeast 223 257 2,700 -689 Descending Memphis Center
Fri 09:47:12 PM 34.7306 -92.0881 49° Northeast 231 266 2,100 -700 Descending Memphis Center
Fri 09:47:29 PM 34.7411 -92.0783 37° Northeast 217 250 2,000 -98 Descending Memphis Center
Fri 09:48:13 PM 34.7744 -92.0814 356° North 174 200 2,000  Level Memphis Center
Fri 09:48:29 PM 34.7806 -92.0892 314° West 178 205 2,000  Level Memphis Center

Login

Don't have an account? Register now (free) for customized features, flight alerts, and more!